sensor_id;sensor_type;location;lat;lon;timestamp;P1;durP1;ratioP1;P2;durP2;ratioP2
51020;SDS011;38907;45.562;8.856;2022-12-29T00:02:34;85.80;;;42.92;;
51020;SDS011;38907;45.562;8.856;2022-12-29T00:07:37;84.93;;;44.20;;
51020;SDS011;38907;45.562;8.856;2022-12-29T00:12:39;83.95;;;44.38;;
51020;SDS011;38907;45.562;8.856;2022-12-29T00:17:58;89.70;;;44.55;;
51020;SDS011;38907;45.562;8.856;2022-12-29T00:23:01;88.35;;;43.15;;
51020;SDS011;38907;45.562;8.856;2022-12-29T00:28:21;95.57;;;45.05;;
51020;SDS011;38907;45.562;8.856;2022-12-29T00:33:40;82.85;;;41.53;;
51020;SDS011;38907;45.562;8.856;2022-12-29T00:39:01;83.63;;;42.00;;
51020;SDS011;38907;45.562;8.856;2022-12-29T00:44:22;80.38;;;42.58;;
51020;SDS011;38907;45.562;8.856;2022-12-29T00:49:24;82.25;;;42.67;;
51020;SDS011;38907;45.562;8.856;2022-12-29T00:54:34;87.00;;;44.35;;
51020;SDS011;38907;45.562;8.856;2022-12-29T00:59:37;79.10;;;39.85;;
51020;SDS011;38907;45.562;8.856;2022-12-29T01:04:40;80.63;;;41.70;;
51020;SDS011;38907;45.562;8.856;2022-12-29T01:09:43;83.03;;;41.10;;
51020;SDS011;38907;45.562;8.856;2022-12-29T01:15:03;76.20;;;39.70;;
51020;SDS011;38907;45.562;8.856;2022-12-29T01:20:05;74.63;;;39.97;;
51020;SDS011;38907;45.562;8.856;2022-12-29T01:25:09;76.00;;;40.40;;
51020;SDS011;38907;45.562;8.856;2022-12-29T01:30:11;86.70;;;43.33;;
51020;SDS011;38907;45.562;8.856;2022-12-29T01:35:13;81.28;;;42.35;;
51020;SDS011;38907;45.562;8.856;2022-12-29T01:40:17;86.50;;;40.60;;
51020;SDS011;38907;45.562;8.856;2022-12-29T01:45:19;69.72;;;39.72;;
51020;SDS011;38907;45.562;8.856;2022-12-29T01:50:22;77.95;;;39.88;;
51020;SDS011;38907;45.562;8.856;2022-12-29T01:55:38;83.22;;;42.85;;
51020;SDS011;38907;45.562;8.856;2022-12-29T02:00:43;81.43;;;41.97;;
51020;SDS011;38907;45.562;8.856;2022-12-29T02:05:46;72.68;;;38.83;;
51020;SDS011;38907;45.562;8.856;2022-12-29T02:10:52;77.68;;;40.75;;
51020;SDS011;38907;45.562;8.856;2022-12-29T02:15:56;74.07;;;39.08;;
51020;SDS011;38907;45.562;8.856;2022-12-29T02:21:21;75.22;;;41.30;;
51020;SDS011;38907;45.562;8.856;2022-12-29T02:26:46;76.82;;;40.33;;
51020;SDS011;38907;45.562;8.856;2022-12-29T02:31:58;68.95;;;38.92;;
51020;SDS011;38907;45.562;8.856;2022-12-29T02:37:03;75.90;;;40.28;;
51020;SDS011;38907;45.562;8.856;2022-12-29T02:42:12;71.43;;;39.47;;
51020;SDS011;38907;45.562;8.856;2022-12-29T02:47:23;76.78;;;39.55;;
51020;SDS011;38907;45.562;8.856;2022-12-29T02:52:31;74.45;;;40.22;;
51020;SDS011;38907;45.562;8.856;2022-12-29T02:57:38;75.95;;;39.40;;
51020;SDS011;38907;45.562;8.856;2022-12-29T03:02:52;71.85;;;40.10;;
51020;SDS011;38907;45.562;8.856;2022-12-29T03:08:06;72.65;;;38.88;;
51020;SDS011;38907;45.562;8.856;2022-12-29T03:13:20;74.32;;;38.45;;
51020;SDS011;38907;45.562;8.856;2022-12-29T03:18:47;72.93;;;38.70;;
51020;SDS011;38907;45.562;8.856;2022-12-29T03:23:54;70.80;;;37.30;;
51020;SDS011;38907;45.562;8.856;2022-12-29T03:28:56;66.05;;;36.05;;
51020;SDS011;38907;45.562;8.856;2022-12-29T03:34:00;66.15;;;37.55;;
51020;SDS011;38907;45.562;8.856;2022-12-29T03:39:05;67.80;;;35.00;;
51020;SDS011;38907;45.562;8.856;2022-12-29T03:44:12;60.83;;;33.72;;
51020;SDS011;38907;45.562;8.856;2022-12-29T03:49:15;66.80;;;35.70;;
51020;SDS011;38907;45.562;8.856;2022-12-29T03:54:17;56.75;;;31.63;;
51020;SDS011;38907;45.562;8.856;2022-12-29T03:59:19;54.63;;;31.50;;
51020;SDS011;38907;45.562;8.856;2022-12-29T04:04:22;48.80;;;30.00;;
51020;SDS011;38907;45.562;8.856;2022-12-29T04:09:24;50.08;;;28.20;;
51020;SDS011;38907;45.562;8.856;2022-12-29T04:14:26;49.15;;;27.45;;
51020;SDS011;38907;45.562;8.856;2022-12-29T04:19:29;41.20;;;26.05;;
51020;SDS011;38907;45.562;8.856;2022-12-29T04:24:31;45.10;;;25.65;;
51020;SDS011;38907;45.562;8.856;2022-12-29T04:29:33;40.55;;;25.20;;
51020;SDS011;38907;45.562;8.856;2022-12-29T04:34:36;47.95;;;25.05;;
51020;SDS011;38907;45.562;8.856;2022-12-29T04:39:38;39.13;;;23.00;;
51020;SDS011;38907;45.562;8.856;2022-12-29T04:44:40;45.10;;;24.35;;
51020;SDS011;38907;45.562;8.856;2022-12-29T04:49:43;38.70;;;22.83;;
51020;SDS011;38907;45.562;8.856;2022-12-29T04:54:45;41.50;;;24.27;;
51020;SDS011;38907;45.562;8.856;2022-12-29T04:59:47;37.35;;;23.15;;
51020;SDS011;38907;45.562;8.856;2022-12-29T05:04:50;40.75;;;24.85;;
51020;SDS011;38907;45.562;8.856;2022-12-29T05:09:52;39.63;;;23.20;;
51020;SDS011;38907;45.562;8.856;2022-12-29T05:14:53;42.40;;;24.23;;
51020;SDS011;38907;45.562;8.856;2022-12-29T05:19:57;40.22;;;23.33;;
51020;SDS011;38907;45.562;8.856;2022-12-29T05:24:58;41.03;;;24.13;;
51020;SDS011;38907;45.562;8.856;2022-12-29T05:30:00;44.72;;;25.17;;
51020;SDS011;38907;45.562;8.856;2022-12-29T05:35:04;44.15;;;25.02;;
51020;SDS011;38907;45.562;8.856;2022-12-29T05:40:07;48.53;;;27.02;;
51020;SDS011;38907;45.562;8.856;2022-12-29T05:45:09;48.07;;;27.80;;
51020;SDS011;38907;45.562;8.856;2022-12-29T05:50:13;45.63;;;27.77;;
51020;SDS011;38907;45.562;8.856;2022-12-29T05:55:15;44.45;;;25.05;;
51020;SDS011;38907;45.562;8.856;2022-12-29T06:00:17;45.15;;;25.52;;
51020;SDS011;38907;45.562;8.856;2022-12-29T06:05:20;41.88;;;25.45;;
51020;SDS011;38907;45.562;8.856;2022-12-29T06:10:22;47.78;;;25.00;;
51020;SDS011;38907;45.562;8.856;2022-12-29T06:15:24;48.15;;;25.33;;
51020;SDS011;38907;45.562;8.856;2022-12-29T06:20:27;40.88;;;24.38;;
51020;SDS011;38907;45.562;8.856;2022-12-29T06:25:29;43.85;;;24.75;;
51020;SDS011;38907;45.562;8.856;2022-12-29T06:30:32;42.08;;;23.95;;
51020;SDS011;38907;45.562;8.856;2022-12-29T06:35:35;41.92;;;24.10;;
51020;SDS011;38907;45.562;8.856;2022-12-29T06:40:37;44.92;;;24.80;;
51020;SDS011;38907;45.562;8.856;2022-12-29T06:45:41;37.47;;;24.42;;
51020;SDS011;38907;45.562;8.856;2022-12-29T06:50:44;41.13;;;24.25;;
51020;SDS011;38907;45.562;8.856;2022-12-29T06:55:46;52.55;;;25.60;;
51020;SDS011;38907;45.562;8.856;2022-12-29T07:00:48;37.92;;;22.60;;
51020;SDS011;38907;45.562;8.856;2022-12-29T07:05:51;46.00;;;23.27;;
51020;SDS011;38907;45.562;8.856;2022-12-29T07:10:54;40.35;;;23.55;;
51020;SDS011;38907;45.562;8.856;2022-12-29T07:15:56;41.72;;;23.92;;
51020;SDS011;38907;45.562;8.856;2022-12-29T07:20:59;35.97;;;22.95;;
51020;SDS011;38907;45.562;8.856;2022-12-29T07:26:01;50.05;;;26.00;;
51020;SDS011;38907;45.562;8.856;2022-12-29T07:31:03;40.85;;;25.30;;
51020;SDS011;38907;45.562;8.856;2022-12-29T07:36:07;41.00;;;23.77;;
51020;SDS011;38907;45.562;8.856;2022-12-29T07:46:10;36.30;;;22.38;;
51020;SDS011;38907;45.562;8.856;2022-12-29T07:51:13;42.60;;;23.75;;
51020;SDS011;38907;45.562;8.856;2022-12-29T07:56:15;40.88;;;24.73;;
51020;SDS011;38907;45.562;8.856;2022-12-29T08:01:17;37.90;;;23.85;;
51020;SDS011;38907;45.562;8.856;2022-12-29T08:06:20;38.30;;;23.55;;
51020;SDS011;38907;45.562;8.856;2022-12-29T08:11:22;39.65;;;22.60;;
51020;SDS011;38907;45.562;8.856;2022-12-29T08:16:24;36.13;;;22.70;;
51020;SDS011;38907;45.562;8.856;2022-12-29T08:21:27;37.92;;;23.88;;
51020;SDS011;38907;45.562;8.856;2022-12-29T08:26:29;43.72;;;24.52;;
51020;SDS011;38907;45.562;8.856;2022-12-29T08:31:32;41.42;;;24.90;;
51020;SDS011;38907;45.562;8.856;2022-12-29T08:36:36;39.45;;;21.92;;
51020;SDS011;38907;45.562;8.856;2022-12-29T08:41:37;37.10;;;21.75;;
51020;SDS011;38907;45.562;8.856;2022-12-29T08:46:39;34.92;;;21.05;;
51020;SDS011;38907;45.562;8.856;2022-12-29T08:51:43;31.52;;;20.90;;
51020;SDS011;38907;45.562;8.856;2022-12-29T08:56:45;36.45;;;20.25;;
51020;SDS011;38907;45.562;8.856;2022-12-29T09:01:46;34.92;;;22.73;;
51020;SDS011;38907;45.562;8.856;2022-12-29T09:06:50;40.35;;;24.45;;
51020;SDS011;38907;45.562;8.856;2022-12-29T09:11:52;42.25;;;26.55;;
51020;SDS011;38907;45.562;8.856;2022-12-29T09:16:54;40.40;;;26.13;;
51020;SDS011;38907;45.562;8.856;2022-12-29T09:22:15;44.95;;;27.67;;
51020;SDS011;38907;45.562;8.856;2022-12-29T09:27:16;44.53;;;27.33;;
51020;SDS011;38907;45.562;8.856;2022-12-29T09:32:18;42.40;;;26.73;;
51020;SDS011;38907;45.562;8.856;2022-12-29T09:37:21;46.50;;;27.08;;
51020;SDS011;38907;45.562;8.856;2022-12-29T09:42:24;42.67;;;25.00;;
51020;SDS011;38907;45.562;8.856;2022-12-29T09:47:29;40.08;;;25.00;;
51020;SDS011;38907;45.562;8.856;2022-12-29T09:52:35;43.72;;;27.05;;
51020;SDS011;38907;45.562;8.856;2022-12-29T09:57:43;45.72;;;27.83;;
51020;SDS011;38907;45.562;8.856;2022-12-29T10:02:49;41.38;;;26.50;;
51020;SDS011;38907;45.562;8.856;2022-12-29T10:07:58;50.55;;;29.98;;
51020;SDS011;38907;45.562;8.856;2022-12-29T10:13:18;49.88;;;31.55;;
51020;SDS011;38907;45.562;8.856;2022-12-29T10:18:42;49.75;;;30.92;;
51020;SDS011;38907;45.562;8.856;2022-12-29T10:24:04;50.30;;;31.17;;
51020;SDS011;38907;45.562;8.856;2022-12-29T10:29:13;54.20;;;31.27;;
51020;SDS011;38907;45.562;8.856;2022-12-29T10:34:19;50.92;;;30.70;;
51020;SDS011;38907;45.562;8.856;2022-12-29T10:39:28;57.75;;;32.65;;
51020;SDS011;38907;45.562;8.856;2022-12-29T10:44:34;50.78;;;31.30;;
51020;SDS011;38907;45.562;8.856;2022-12-29T10:49:37;51.38;;;30.73;;
51020;SDS011;38907;45.562;8.856;2022-12-29T10:54:45;50.92;;;31.83;;
51020;SDS011;38907;45.562;8.856;2022-12-29T10:59:52;52.95;;;31.42;;
51020;SDS011;38907;45.562;8.856;2022-12-29T11:04:55;53.47;;;33.33;;
51020;SDS011;38907;45.562;8.856;2022-12-29T11:10:17;56.03;;;34.33;;
51020;SDS011;38907;45.562;8.856;2022-12-29T11:15:37;54.72;;;33.20;;
51020;SDS011;38907;45.562;8.856;2022-12-29T11:20:40;53.10;;;32.28;;
51020;SDS011;38907;45.562;8.856;2022-12-29T11:25:44;54.33;;;32.60;;
51020;SDS011;38907;45.562;8.856;2022-12-29T11:30:49;58.35;;;34.38;;
51020;SDS011;38907;45.562;8.856;2022-12-29T11:36:01;57.75;;;35.22;;
51020;SDS011;38907;45.562;8.856;2022-12-29T11:41:11;51.25;;;31.80;;
51020;SDS011;38907;45.562;8.856;2022-12-29T11:46:24;54.58;;;32.67;;
51020;SDS011;38907;45.562;8.856;2022-12-29T11:51:30;49.67;;;31.17;;
51020;SDS011;38907;45.562;8.856;2022-12-29T11:56:40;52.50;;;32.45;;
51020;SDS011;38907;45.562;8.856;2022-12-29T12:01:44;50.75;;;32.75;;
51020;SDS011;38907;45.562;8.856;2022-12-29T12:06:49;49.08;;;30.65;;
51020;SDS011;38907;45.562;8.856;2022-12-29T12:12:00;49.95;;;29.95;;
51020;SDS011;38907;45.562;8.856;2022-12-29T12:17:05;49.42;;;28.38;;
51020;SDS011;38907;45.562;8.856;2022-12-29T12:22:13;46.88;;;27.98;;
51020;SDS011;38907;45.562;8.856;2022-12-29T12:27:21;46.38;;;27.15;;
51020;SDS011;38907;45.562;8.856;2022-12-29T12:32:29;42.10;;;26.70;;
51020;SDS011;38907;45.562;8.856;2022-12-29T12:37:46;44.10;;;27.33;;
51020;SDS011;38907;45.562;8.856;2022-12-29T12:43:09;43.42;;;26.17;;
51020;SDS011;38907;45.562;8.856;2022-12-29T12:48:28;39.08;;;25.80;;
51020;SDS011;38907;45.562;8.856;2022-12-29T12:53:59;40.22;;;25.45;;
51020;SDS011;38907;45.562;8.856;2022-12-29T12:59:16;37.42;;;23.90;;
51020;SDS011;38907;45.562;8.856;2022-12-29T13:10:19;42.97;;;25.10;;
51020;SDS011;38907;45.562;8.856;2022-12-29T13:15:37;38.65;;;24.02;;
51020;SDS011;38907;45.562;8.856;2022-12-29T13:20:47;39.30;;;24.10;;
51020;SDS011;38907;45.562;8.856;2022-12-29T13:25:55;46.75;;;24.60;;
51020;SDS011;38907;45.562;8.856;2022-12-29T13:31:07;37.92;;;24.08;;
51020;SDS011;38907;45.562;8.856;2022-12-29T13:36:19;39.43;;;24.60;;
51020;SDS011;38907;45.562;8.856;2022-12-29T13:41:27;39.33;;;24.38;;
51020;SDS011;38907;45.562;8.856;2022-12-29T13:46:37;42.22;;;25.75;;
51020;SDS011;38907;45.562;8.856;2022-12-29T13:51:41;39.53;;;26.33;;
51020;SDS011;38907;45.562;8.856;2022-12-29T13:56:49;41.65;;;25.23;;
51020;SDS011;38907;45.562;8.856;2022-12-29T14:01:56;44.45;;;25.27;;
51020;SDS011;38907;45.562;8.856;2022-12-29T14:07:01;47.92;;;27.95;;
51020;SDS011;38907;45.562;8.856;2022-12-29T14:12:18;38.72;;;25.60;;
51020;SDS011;38907;45.562;8.856;2022-12-29T14:17:24;45.85;;;25.80;;
51020;SDS011;38907;45.562;8.856;2022-12-29T14:22:26;40.38;;;24.83;;
51020;SDS011;38907;45.562;8.856;2022-12-29T14:27:50;43.65;;;26.08;;
51020;SDS011;38907;45.562;8.856;2022-12-29T14:33:02;38.83;;;23.88;;
51020;SDS011;38907;45.562;8.856;2022-12-29T14:38:14;40.33;;;25.48;;
51020;SDS011;38907;45.562;8.856;2022-12-29T14:43:20;45.90;;;26.17;;
51020;SDS011;38907;45.562;8.856;2022-12-29T14:48:32;41.00;;;25.27;;
51020;SDS011;38907;45.562;8.856;2022-12-29T14:53:42;39.45;;;24.17;;
51020;SDS011;38907;45.562;8.856;2022-12-29T14:58:47;39.55;;;25.05;;
51020;SDS011;38907;45.562;8.856;2022-12-29T15:03:55;44.13;;;25.25;;
51020;SDS011;38907;45.562;8.856;2022-12-29T15:09:00;40.88;;;24.27;;
51020;SDS011;38907;45.562;8.856;2022-12-29T15:19:30;38.33;;;21.92;;
51020;SDS011;38907;45.562;8.856;2022-12-29T15:24:32;39.03;;;23.42;;
51020;SDS011;38907;45.562;8.856;2022-12-29T15:29:36;41.30;;;24.25;;
51020;SDS011;38907;45.562;8.856;2022-12-29T15:34:41;41.47;;;22.83;;
51020;SDS011;38907;45.562;8.856;2022-12-29T15:39:43;43.22;;;21.30;;
51020;SDS011;38907;45.562;8.856;2022-12-29T15:44:45;39.22;;;20.85;;
51020;SDS011;38907;45.562;8.856;2022-12-29T15:49:49;39.28;;;21.15;;
51020;SDS011;38907;45.562;8.856;2022-12-29T15:54:53;34.17;;;22.38;;
51020;SDS011;38907;45.562;8.856;2022-12-29T15:59:55;34.63;;;20.05;;
51020;SDS011;38907;45.562;8.856;2022-12-29T16:04:59;32.85;;;19.13;;
51020;SDS011;38907;45.562;8.856;2022-12-29T16:10:01;41.63;;;20.67;;
51020;SDS011;38907;45.562;8.856;2022-12-29T16:15:04;34.03;;;21.40;;
51020;SDS011;38907;45.562;8.856;2022-12-29T16:20:15;43.75;;;24.95;;
51020;SDS011;38907;45.562;8.856;2022-12-29T16:25:21;45.75;;;25.50;;
51020;SDS011;38907;45.562;8.856;2022-12-29T16:30:26;46.65;;;25.60;;
51020;SDS011;38907;45.562;8.856;2022-12-29T16:35:38;42.30;;;25.60;;
51020;SDS011;38907;45.562;8.856;2022-12-29T16:40:49;50.13;;;26.00;;
51020;SDS011;38907;45.562;8.856;2022-12-29T16:51:31;53.03;;;24.70;;
51020;SDS011;38907;45.562;8.856;2022-12-29T16:56:35;42.85;;;26.70;;
51020;SDS011;38907;45.562;8.856;2022-12-29T17:06:42;45.63;;;25.70;;
51020;SDS011;38907;45.562;8.856;2022-12-29T17:16:57;41.25;;;24.42;;
51020;SDS011;38907;45.562;8.856;2022-12-29T17:22:02;50.05;;;27.80;;
51020;SDS011;38907;45.562;8.856;2022-12-29T17:27:10;49.97;;;29.02;;
51020;SDS011;38907;45.562;8.856;2022-12-29T17:32:23;50.30;;;30.55;;
51020;SDS011;38907;45.562;8.856;2022-12-29T17:37:30;45.33;;;27.83;;
51020;SDS011;38907;45.562;8.856;2022-12-29T17:42:35;46.28;;;27.13;;
51020;SDS011;38907;45.562;8.856;2022-12-29T17:47:42;42.67;;;26.65;;
51020;SDS011;38907;45.562;8.856;2022-12-29T17:52:47;45.92;;;24.23;;
51020;SDS011;38907;45.562;8.856;2022-12-29T17:57:52;41.75;;;25.77;;
51020;SDS011;38907;45.562;8.856;2022-12-29T18:02:54;52.53;;;30.08;;
51020;SDS011;38907;45.562;8.856;2022-12-29T18:07:58;58.33;;;32.17;;
51020;SDS011;38907;45.562;8.856;2022-12-29T18:13:00;54.35;;;33.60;;
51020;SDS011;38907;45.562;8.856;2022-12-29T18:18:08;54.53;;;30.80;;
51020;SDS011;38907;45.562;8.856;2022-12-29T18:23:14;55.88;;;30.50;;
51020;SDS011;38907;45.562;8.856;2022-12-29T18:28:21;57.92;;;30.92;;
51020;SDS011;38907;45.562;8.856;2022-12-29T18:33:24;52.00;;;30.52;;
51020;SDS011;38907;45.562;8.856;2022-12-29T18:38:27;57.78;;;33.42;;
51020;SDS011;38907;45.562;8.856;2022-12-29T18:43:29;48.90;;;28.40;;
51020;SDS011;38907;45.562;8.856;2022-12-29T18:48:31;62.13;;;30.67;;
51020;SDS011;38907;45.562;8.856;2022-12-29T18:53:35;59.38;;;32.70;;
51020;SDS011;38907;45.562;8.856;2022-12-29T18:58:37;73.18;;;38.88;;
51020;SDS011;38907;45.562;8.856;2022-12-29T19:03:39;70.15;;;38.30;;
51020;SDS011;38907;45.562;8.856;2022-12-29T19:08:42;56.90;;;34.20;;
51020;SDS011;38907;45.562;8.856;2022-12-29T19:13:44;50.75;;;30.30;;
51020;SDS011;38907;45.562;8.856;2022-12-29T19:18:45;49.60;;;28.63;;
51020;SDS011;38907;45.562;8.856;2022-12-29T19:23:49;45.83;;;28.67;;
51020;SDS011;38907;45.562;8.856;2022-12-29T19:28:52;50.70;;;29.65;;
51020;SDS011;38907;45.562;8.856;2022-12-29T19:33:54;56.30;;;31.00;;
51020;SDS011;38907;45.562;8.856;2022-12-29T19:38:57;51.22;;;31.00;;
51020;SDS011;38907;45.562;8.856;2022-12-29T19:49:01;51.40;;;31.15;;
51020;SDS011;38907;45.562;8.856;2022-12-29T19:54:04;62.67;;;35.72;;
51020;SDS011;38907;45.562;8.856;2022-12-29T19:59:06;64.55;;;34.92;;
51020;SDS011;38907;45.562;8.856;2022-12-29T20:04:08;71.97;;;35.55;;
51020;SDS011;38907;45.562;8.856;2022-12-29T20:09:11;55.28;;;32.97;;
51020;SDS011;38907;45.562;8.856;2022-12-29T20:14:14;53.53;;;31.80;;
51020;SDS011;38907;45.562;8.856;2022-12-29T20:19:16;57.50;;;32.20;;
51020;SDS011;38907;45.562;8.856;2022-12-29T20:24:19;56.85;;;34.28;;
51020;SDS011;38907;45.562;8.856;2022-12-29T20:29:21;59.17;;;32.92;;
51020;SDS011;38907;45.562;8.856;2022-12-29T20:34:24;78.22;;;35.58;;
51020;SDS011;38907;45.562;8.856;2022-12-29T20:39:28;69.82;;;34.90;;
51020;SDS011;38907;45.562;8.856;2022-12-29T20:44:31;64.88;;;34.58;;
51020;SDS011;38907;45.562;8.856;2022-12-29T20:49:33;63.97;;;35.83;;
51020;SDS011;38907;45.562;8.856;2022-12-29T20:54:38;61.17;;;35.05;;
51020;SDS011;38907;45.562;8.856;2022-12-29T20:59:43;64.05;;;37.30;;
51020;SDS011;38907;45.562;8.856;2022-12-29T21:04:45;61.72;;;36.45;;
51020;SDS011;38907;45.562;8.856;2022-12-29T21:09:50;64.85;;;35.72;;
51020;SDS011;38907;45.562;8.856;2022-12-29T21:14:52;66.30;;;36.53;;
51020;SDS011;38907;45.562;8.856;2022-12-29T21:19:55;76.47;;;42.63;;
51020;SDS011;38907;45.562;8.856;2022-12-29T21:24:58;72.17;;;40.77;;
51020;SDS011;38907;45.562;8.856;2022-12-29T21:30:00;61.25;;;36.50;;
51020;SDS011;38907;45.562;8.856;2022-12-29T21:35:05;59.00;;;35.47;;
51020;SDS011;38907;45.562;8.856;2022-12-29T21:40:10;71.78;;;35.53;;
51020;SDS011;38907;45.562;8.856;2022-12-29T21:45:12;61.20;;;34.42;;
51020;SDS011;38907;45.562;8.856;2022-12-29T21:50:26;54.47;;;33.20;;
51020;SDS011;38907;45.562;8.856;2022-12-29T21:55:29;57.28;;;33.47;;
51020;SDS011;38907;45.562;8.856;2022-12-29T22:00:31;68.22;;;35.38;;
51020;SDS011;38907;45.562;8.856;2022-12-29T22:05:51;61.03;;;34.95;;
51020;SDS011;38907;45.562;8.856;2022-12-29T22:11:11;56.65;;;33.90;;
51020;SDS011;38907;45.562;8.856;2022-12-29T22:16:31;56.30;;;33.47;;
51020;SDS011;38907;45.562;8.856;2022-12-29T22:21:32;60.30;;;34.72;;
51020;SDS011;38907;45.562;8.856;2022-12-29T22:26:36;61.45;;;35.78;;
51020;SDS011;38907;45.562;8.856;2022-12-29T22:31:38;60.20;;;36.17;;
51020;SDS011;38907;45.562;8.856;2022-12-29T22:36:40;68.00;;;40.78;;
51020;SDS011;38907;45.562;8.856;2022-12-29T22:41:43;74.85;;;44.33;;
51020;SDS011;38907;45.562;8.856;2022-12-29T22:46:45;72.85;;;41.05;;
51020;SDS011;38907;45.562;8.856;2022-12-29T22:51:48;71.63;;;38.97;;
51020;SDS011;38907;45.562;8.856;2022-12-29T22:56:51;67.13;;;38.88;;
51020;SDS011;38907;45.562;8.856;2022-12-29T23:01:53;74.68;;;41.00;;
51020;SDS011;38907;45.562;8.856;2022-12-29T23:06:55;68.93;;;40.50;;
51020;SDS011;38907;45.562;8.856;2022-12-29T23:11:58;81.97;;;40.13;;
51020;SDS011;38907;45.562;8.856;2022-12-29T23:17:00;66.03;;;39.78;;
51020;SDS011;38907;45.562;8.856;2022-12-29T23:22:02;65.50;;;38.40;;
51020;SDS011;38907;45.562;8.856;2022-12-29T23:27:06;61.95;;;37.60;;
51020;SDS011;38907;45.562;8.856;2022-12-29T23:32:07;66.43;;;37.65;;
51020;SDS011;38907;45.562;8.856;2022-12-29T23:37:09;65.00;;;36.67;;
51020;SDS011;38907;45.562;8.856;2022-12-29T23:42:13;59.05;;;37.42;;
51020;SDS011;38907;45.562;8.856;2022-12-29T23:47:15;64.53;;;37.67;;
51020;SDS011;38907;45.562;8.856;2022-12-29T23:52:16;67.40;;;40.40;;
51020;SDS011;38907;45.562;8.856;2022-12-29T23:57:20;80.57;;;44.53;;
